Time;durP1;ratioP1;P1;durP2;ratioP2;P2;SDS_P1;SDS_P2;PMS_P1;PMS_P2;Temp;Humidity;BMP_temperature;BMP_pressure;BME280_temperature;BME280_humidity;BME280_pressure;Samples;Min_cycle;Max_cycle;Signal;HPM_P1;HPM_P2
2022/02/03 00:01:15;;;;;;;15.02;8.15;;;;;;;13.66;52.55;101740.84;5009136;28;20123;-76
2022/02/03 00:03:57;;;;;;;13.95;7.43;;;;;;;13.66;52.08;101734.50;5010403;28;20050;-76
2022/02/03 00:06:46;;;;;;;12.30;6.90;;;;;;;13.65;52.19;101733.63;5010291;28;20131;-76
2022/02/03 00:09:47;;;;;;;14.32;7.60;;;;;;;13.67;52.00;101739.84;5006159;28;20123;-77
2022/02/03 00:22:58;;;;;;;13.15;7.50;;;;;;;13.70;52.17;101731.47;5007394;28;20082;-76
2022/02/03 00:25:32;;;;;;;11.85;6.90;;;;;;;13.70;51.93;101727.84;5005298;28;20100;-76
2022/02/03 00:28:10;;;;;;;13.25;7.60;;;;;;;13.71;52.29;101721.44;5000970;28;20049;-76
2022/02/03 00:49:06;;;;;;;12.80;7.28;;;;;;;13.71;52.45;101711.38;4999032;28;20501;-76
2022/02/03 00:51:34;;;;;;;15.07;8.20;;;;;;;13.73;52.11;101702.22;5010782;28;20096;-76
2022/02/03 00:54:02;;;;;;;15.50;7.93;;;;;;;13.73;52.33;101716.75;5001855;28;20062;-76
2022/02/03 00:56:35;;;;;;;13.82;7.78;;;;;;;13.76;52.69;101700.16;5005720;28;20457;-76
2022/02/03 00:59:08;;;;;;;13.63;7.88;;;;;;;13.76;52.36;101699.28;5010303;28;20327;-76
2022/02/03 01:01:38;;;;;;;13.18;7.60;;;;;;;13.74;52.62;101699.41;5010185;28;20133;-76
2022/02/03 01:04:11;;;;;;;14.38;8.25;;;;;;;13.74;52.77;101699.41;5002174;28;20116;-76
2022/02/03 01:06:47;;;;;;;12.65;7.57;;;;;;;13.71;52.38;101692.28;5003015;28;20497;-76
2022/02/03 01:09:18;;;;;;;13.85;7.90;;;;;;;13.74;52.53;101695.78;5006092;28;20061;-76
2022/02/03 01:11:57;;;;;;;12.68;7.10;;;;;;;13.74;52.78;101693.94;5010524;28;20073;-76
2022/02/03 01:14:35;;;;;;;13.07;7.50;;;;;;;13.71;52.40;101697.75;5008953;28;20092;-76
2022/02/03 01:44:55;;;;;;;12.35;7.10;;;;;;;13.73;52.66;101686.72;5008037;28;20073;-76
2022/02/03 01:52:34;;;;;;;12.85;7.97;;;;;;;13.72;52.58;101679.50;5010297;28;20053;-76
2022/02/03 01:55:04;;;;;;;14.27;8.10;;;;;;;13.75;52.81;101678.44;5006829;28;20111;-76
2022/02/03 01:57:40;;;;;;;13.25;8.23;;;;;;;13.76;53.11;101681.03;5008797;28;20112;-76
2022/02/03 02:00:15;;;;;;;14.45;7.63;;;;;;;13.76;53.01;101671.97;5008225;28;20093;-76
2022/02/03 02:03:14;;;;;;;15.15;7.68;;;;;;;13.77;53.01;101673.72;5006889;28;20586;-76
2022/02/03 02:06:01;;;;;;;12.77;7.90;;;;;;;13.75;53.29;101668.41;5008194;28;20053;-76
2022/02/03 02:08:57;;;;;;;13.10;8.13;;;;;;;13.74;53.02;101668.50;5007683;28;20124;-76
2022/02/03 02:11:59;;;;;;;13.43;8.23;;;;;;;13.74;52.93;101660.31;5006195;28;20135;-76
2022/02/03 02:18:11;;;;;;;12.27;7.57;;;;;;;13.68;52.74;101659.72;5008857;28;20078;-76
2022/02/03 02:43:01;;;;;;;12.52;7.50;;;;;;;13.67;53.36;101635.31;4969015;28;20102;-76
2022/02/03 02:45:53;;;;;;;13.82;7.90;;;;;;;13.66;53.48;101630.81;4987337;28;20053;-76
2022/02/03 02:48:25;;;;;;;13.45;7.90;;;;;;;13.66;53.38;101619.91;4986222;28;20050;-76
2022/02/03 02:51:02;;;;;;;13.88;7.55;;;;;;;13.63;53.14;101625.56;4988826;28;20132;-76
2022/02/03 02:57:20;;;;;;;12.27;7.50;;;;;;;13.64;53.58;101630.91;4967021;28;20141;-76
2022/02/03 03:33:59;;;;;;;11.80;7.47;;;;;;;13.52;53.56;101607.16;5011605;28;20489;-76
2022/02/03 03:36:30;;;;;;;11.45;7.70;;;;;;;13.52;53.52;101607.16;5001588;28;20508;-76
2022/02/03 03:38:57;;;;;;;12.93;8.30;;;;;;;13.51;53.39;101594.50;5011311;28;20140;-76
2022/02/03 03:41:26;;;;;;;12.52;7.72;;;;;;;13.52;53.54;101592.66;5011187;28;20573;-76
2022/02/03 03:44:01;;;;;;;13.45;7.65;;;;;;;13.52;54.07;101598.97;5009873;28;20137;-76
2022/02/03 03:46:34;;;;;;;12.52;7.70;;;;;;;13.51;53.66;101602.69;5005529;28;20046;-76
2022/02/03 03:49:53;;;;;;;12.63;7.95;;;;;;;13.51;54.06;101599.06;5007821;28;20049;-76
2022/02/03 03:52:26;;;;;;;10.20;6.85;;;;;;;13.45;53.75;101581.28;5001462;28;20077;-76
2022/02/03 03:55:42;;;;;;;;;;;;;;;13.23;54.28;101579.13;5009682;28;20156;-76
2022/02/03 04:39:08;;;;;;;8.13;4.55;;;;;;;13.26;53.37;101542.56;5005783;28;20073;-76
2022/02/03 04:57:06;;;;;;;7.35;4.40;;;;;;;13.22;53.51;101527.41;5006498;28;20057;-76
2022/02/03 05:03:26;;;;;;;9.02;4.78;;;;;;;13.21;53.73;101510.19;5007454;28;20130;-76
2022/02/03 05:06:11;;;;;;;6.68;3.97;;;;;;;13.21;53.62;101510.19;5003372;28;20104;-76
2022/02/03 05:09:27;;;;;;;9.15;3.90;;;;;;;13.21;53.63;101512.03;5011926;28;20057;-76
2022/02/03 05:45:27;;;;;;;7.22;4.13;;;;;;;13.23;53.04;101491.00;5007843;28;20054;-76
2022/02/03 06:14:53;;;;;;;5.15;3.13;;;;;;;13.24;53.65;101470.94;5004622;28;20057;-78
2022/02/03 06:22:48;;;;;;;5.03;3.42;;;;;;;13.26;53.47;101453.47;5014911;28;20068;-78
2022/02/03 06:27:55;;;;;;;6.13;3.92;;;;;;;13.27;53.72;101460.66;5008765;28;20120;-77
2022/02/03 06:30:22;;;;;;;5.18;3.30;;;;;;;13.29;53.35;101457.84;5004622;28;20478;-78
2022/02/03 06:32:49;;;;;;;5.72;3.55;;;;;;;13.30;53.51;101454.13;5005810;28;20105;-78
2022/02/03 06:35:19;;;;;;;6.70;3.45;;;;;;;13.31;53.41;101455.88;5006401;28;20089;-78
2022/02/03 06:37:48;;;;;;;6.33;3.50;;;;;;;13.29;53.69;101452.38;5008977;28;20077;-78
2022/02/03 06:40:16;;;;;;;5.60;3.78;;;;;;;13.32;53.65;101454.91;5010283;28;20090;-77
2022/02/03 06:42:44;;;;;;;6.18;3.72;;;;;;;13.32;53.40;101450.34;5000577;28;20046;-78
2022/02/03 06:45:21;;;;;;;5.85;3.47;;;;;;;13.33;53.46;101446.63;5007460;28;20062;-77
2022/02/03 06:48:09;;;;;;;7.57;3.97;;;;;;;13.33;53.53;101437.56;5007055;28;20477;-77
2022/02/03 06:50:42;;;;;;;6.88;4.10;;;;;;;13.33;53.39;101440.31;5015622;28;20433;-77
2022/02/03 06:53:22;;;;;;;7.47;3.90;;;;;;;13.32;53.90;101435.81;5007565;28;20172;-77
2022/02/03 06:58:27;;;;;;;7.22;4.05;;;;;;;13.36;53.73;101439.19;5016113;28;20830;-77
2022/02/03 07:01:17;;;;;;;5.97;3.90;;;;;;;13.36;53.63;101439.19;5010589;28;20045;-76
2022/02/03 07:03:47;;;;;;;5.63;3.42;;;;;;;13.34;53.83;101431.16;5000252;28;20157;-77
2022/02/03 07:06:14;;;;;;;;;;;;;;;13.14;54.32;101442.53;5008842;28;20116;-77
2022/02/03 07:08:43;;;;;;;7.60;3.25;;;;;;;13.32;53.46;101439.44;5011966;28;19921;-80
2022/02/03 07:11:10;;;;;;;5.55;3.33;;;;;;;13.36;53.90;101439.19;5006551;28;20057;-80
2022/02/03 07:13:37;;;;;;;8.57;4.18;;;;;;;13.36;53.59;101431.00;5010409;28;20124;-80
2022/02/03 07:16:04;;;;;;;7.93;4.10;;;;;;;13.37;53.67;101436.38;5010494;28;20072;-79
2022/02/03 07:18:30;;;;;;;5.80;3.78;;;;;;;13.37;53.77;101430.03;5016632;28;20174;-79
2022/02/03 07:20:57;;;;;;;7.85;4.00;;;;;;;13.37;53.96;101433.63;5009335;28;20093;-80
2022/02/03 07:23:24;;;;;;;7.03;4.40;;;;;;;13.37;53.82;101428.19;5012307;28;20046;-80
2022/02/03 07:25:50;;;;;;;5.50;3.70;;;;;;;13.37;53.96;101425.47;5017898;28;20061;-79
2022/02/03 07:28:17;;;;;;;7.47;4.20;;;;;;;13.37;53.65;101420.00;5012574;28;20057;-80
2022/02/03 07:30:43;;;;;;;7.70;4.10;;;;;;;13.38;53.82;101396.31;5010450;28;20077;-80
2022/02/03 07:33:10;;;;;;;7.38;4.40;;;;;;;13.38;53.66;101386.28;5010744;28;20073;-81
2022/02/03 07:35:37;;;;;;;8.13;4.57;;;;;;;13.38;54.07;101383.56;5020985;28;20058;-81
2022/02/03 07:38:06;;;;;;;8.20;4.57;;;;;;;13.39;54.02;101384.44;5010274;28;20046;-79
2022/02/03 07:40:33;;;;;;;7.30;4.65;;;;;;;13.39;53.59;101384.44;5010624;28;20507;-78
2022/02/03 07:43:03;;;;;;;8.07;4.38;;;;;;;13.39;54.09;101379.88;5011856;28;20073;-80
2022/02/03 07:45:31;;;;;;;7.88;4.95;;;;;;;13.40;54.07;101370.69;5009505;28;20050;-80
2022/02/03 07:47:58;;;;;;;7.50;4.65;;;;;;;13.39;53.97;101377.13;5010655;28;20486;-80
2022/02/03 07:50:25;;;;;;;7.65;4.53;;;;;;;13.39;54.13;101390.78;5010417;28;20065;-80
2022/02/03 07:52:52;;;;;;;7.57;5.05;;;;;;;13.40;53.88;101395.25;5011259;28;20052;-80
2022/02/03 07:55:20;;;;;;;7.55;4.72;;;;;;;13.39;54.36;101398.97;5010286;28;20132;-80
2022/02/03 07:57:49;;;;;;;8.68;5.25;;;;;;;13.43;54.32;101402.31;5002139;28;20041;-80
2022/02/03 08:00:19;;;;;;;9.88;6.53;;;;;;;13.42;54.23;101392.41;5009864;28;20097;-79
2022/02/03 08:03:10;;;;;;;9.35;6.00;;;;;;;13.40;54.46;101397.97;5011617;28;20049;-80
2022/02/03 08:05:41;;;;;;;8.13;4.33;;;;;;;13.40;54.13;101399.84;5010119;28;20077;-79
2022/02/03 08:08:54;;;;;;;8.68;4.53;;;;;;;13.41;53.81;101387.94;5011846;28;20080;-80
2022/02/03 08:11:06;;;;;;;7.25;4.10;;;;;;;13.41;54.11;101377.91;5001657;28;20143;-80
2022/02/03 08:13:45;;;;;;;6.88;4.43;;;;;;;13.41;53.90;101366.13;5001590;28;20056;-82
2022/02/03 08:16:25;;;;;;;7.55;4.30;;;;;;;13.42;53.85;101360.56;5007456;28;20120;-80
2022/02/03 08:18:59;;;;;;;7.65;4.45;;;;;;;13.42;54.24;101359.69;5009553;28;20154;-80
2022/02/03 08:21:26;;;;;;;7.55;4.30;;;;;;;13.42;53.76;101354.25;5019053;28;20089;-79
2022/02/03 08:25:04;;;;;;;7.65;4.13;;;;;;;13.43;53.80;101355.94;5010573;28;20058;-79
2022/02/03 08:32:02;;;;;;;6.72;3.78;;;;;;;13.42;53.73;101332.41;5009551;28;20088;-80
2022/02/03 08:34:44;;;;;;;6.88;3.83;;;;;;;13.42;54.00;101326.97;5011110;28;20054;-79
2022/02/03 08:37:12;;;;;;;9.05;4.78;;;;;;;13.40;53.82;101328.91;4990637;28;20051;-81
2022/02/03 08:39:51;;;;;;;6.82;3.72;;;;;;;13.41;53.65;101328.81;4989305;28;20085;-81
2022/02/03 08:42:18;;;;;;;6.60;3.60;;;;;;;13.41;53.57;101330.66;4991136;28;20355;-81
2022/02/03 08:44:46;;;;;;;7.45;3.90;;;;;;;13.42;53.36;101322.38;4994544;28;20365;-81
2022/02/03 08:47:12;;;;;;;7.00;3.90;;;;;;;13.41;53.44;101320.63;5007711;28;20180;-81
2022/02/03 08:49:45;;;;;;;6.75;3.65;;;;;;;13.42;53.50;101319.66;5002460;28;20637;-81
2022/02/03 08:52:17;;;;;;;6.30;3.30;;;;;;;13.40;53.60;101318.00;4982557;28;20046;-80
2022/02/03 08:55:21;;;;;;;5.75;3.60;;;;;;;13.38;53.25;101319.97;4983432;28;20085;-81
2022/02/03 09:36:41;;;;;;;7.47;4.13;;;;;;;13.19;53.58;101328.56;5001616;28;20493;-80
2022/02/03 09:41:59;;;;;;;7.45;4.40;;;;;;;13.17;53.64;101328.69;5009644;28;20195;-80
2022/02/03 09:58:14;;;;;;;7.45;4.60;;;;;;;13.11;53.70;101300.94;4928081;29;20059;-81
2022/02/03 10:06:08;;;;;;;8.00;4.78;;;;;;;13.12;53.82;101289.06;4919995;29;20047;-80
2022/02/03 10:08:36;;;;;;;7.72;4.60;;;;;;;13.12;53.47;101298.09;4910633;29;20146;-81
2022/02/03 10:11:17;;;;;;;7.78;4.68;;;;;;;13.14;53.57;101290.72;4926558;29;20059;-81
2022/02/03 10:13:45;;;;;;;7.32;4.43;;;;;;;13.10;53.54;101283.69;4927917;29;20098;-80
2022/02/03 10:16:14;;;;;;;7.07;4.20;;;;;;;13.12;53.32;101284.47;4921813;29;20517;-80
2022/02/03 10:18:41;;;;;;;8.88;4.95;;;;;;;13.12;53.08;101294.50;4925507;29;20055;-80
2022/02/03 10:21:13;;;;;;;7.90;4.22;;;;;;;13.13;53.52;101288.97;4920851;29;20055;-80
2022/02/03 10:23:54;;;;;;;6.93;4.43;;;;;;;13.14;53.24;101289.84;4962654;28;20068;-81
2022/02/03 10:26:29;;;;;;;7.28;4.53;;;;;;;13.12;53.05;101283.59;5003102;28;20119;-80
2022/02/03 10:28:58;;;;;;;7.82;4.28;;;;;;;13.11;53.28;101279.13;5005574;28;20057;-80
2022/02/03 10:31:41;;;;;;;6.75;4.30;;;;;;;13.11;52.93;101281.84;4987704;28;20442;-80
2022/02/03 10:34:11;;;;;;;6.28;4.10;;;;;;;13.10;53.13;101280.97;4980465;28;20136;-80
2022/02/03 10:36:48;;;;;;;6.63;4.28;;;;;;;13.10;53.05;101283.69;4988692;28;20108;-79
2022/02/03 10:40:09;;;;;;;6.43;3.85;;;;;;;13.06;52.84;101287.63;4989458;28;20145;-82
2022/02/03 10:45:42;;;;;;;5.18;3.08;;;;;;;13.06;52.39;101293.09;4993141;28;20498;-79
2022/02/03 10:52:00;;;;;;;5.75;2.72;;;;;;;13.00;51.74;101293.53;5007847;28;20141;-79
2022/02/03 11:03:00;;;;;;;4.80;2.78;;;;;;;12.86;51.79;101269.94;5009935;28;20042;-82
2022/02/03 11:06:05;;;;;;;4.28;2.90;;;;;;;12.81;51.71;101258.50;5001764;28;20140;-78
2022/02/03 11:08:19;;;;;;;4.60;2.42;;;;;;;12.78;51.87;101258.69;5006975;28;20081;-80
2022/02/03 11:10:55;;;;;;;3.78;2.45;;;;;;;12.77;51.39;101243.34;5006089;28;20088;-80
2022/02/03 11:13:29;;;;;;;4.55;2.40;;;;;;;12.76;51.56;101244.34;5008013;28;20120;-80
2022/02/03 11:16:02;;;;;;;3.78;2.25;;;;;;;12.76;51.53;101246.19;5002987;28;20062;-82
2022/02/03 11:18:30;;;;;;;3.60;2.25;;;;;;;12.73;51.88;101246.38;5005839;28;20440;-81
2022/02/03 11:20:59;;;;;;;4.32;2.50;;;;;;;12.73;51.40;101247.25;5005587;28;20116;-81
2022/02/03 11:26:16;;;;;;;4.50;2.47;;;;;;;12.74;50.82;101229.06;5005298;28;20053;-81
2022/02/03 11:29:08;;;;;;;3.90;2.40;;;;;;;12.72;51.63;101220.13;5006636;28;20081;-78
2022/02/03 11:40:13;;;;;;;3.92;2.50;;;;;;;12.70;50.80;101201.16;5006962;28;20145;-80
2022/02/03 11:56:55;;;;;;;4.43;2.50;;;;;;;12.64;51.04;101214.34;5009718;28;20489;-80
2022/02/03 12:11:19;;;;;;;3.92;2.40;;;;;;;12.60;50.42;101204.66;5010665;28;20501;-80
2022/02/03 12:19:21;;;;;;;4.15;2.72;;;;;;;12.60;50.64;101180.97;5011299;28;20068;-80
2022/02/03 12:22:27;;;;;;;3.80;2.17;;;;;;;12.56;50.23;101185.78;5011317;28;20433;-80
2022/02/03 12:25:20;;;;;;;3.53;2.30;;;;;;;12.59;50.58;101195.59;5009640;28;20058;-80
2022/02/03 12:28:02;;;;;;;5.10;2.45;;;;;;;12.53;50.66;101183.25;5011632;28;20116;-80
2022/02/03 12:39:15;;;;;;;4.15;2.60;;;;;;;12.56;50.70;101172.16;5010406;28;20096;-79
2022/02/03 12:41:50;;;;;;;4.05;2.60;;;;;;;12.55;50.64;101156.81;5010521;28;20054;-79
2022/02/03 12:44:24;;;;;;;4.53;2.80;;;;;;;12.56;50.42;101150.38;5010119;28;20046;-80
2022/02/03 12:46:51;;;;;;;4.20;2.42;;;;;;;12.54;50.62;101155.06;5010290;28;20054;-80
2022/02/03 12:49:21;;;;;;;4.10;2.70;;;;;;;12.58;50.36;101142.97;5008749;28;20053;-80
2022/02/03 12:51:50;;;;;;;3.63;2.38;;;;;;;12.58;50.63;101128.50;5009382;28;20107;-80
2022/02/03 12:54:17;;;;;;;5.55;2.50;;;;;;;12.54;50.45;101129.66;5009641;28;20053;-79
2022/02/03 12:56:43;;;;;;;4.30;2.60;;;;;;;12.54;50.59;101122.38;5015375;28;20081;-80
2022/02/03 12:59:14;;;;;;;4.93;2.83;;;;;;;12.56;50.50;101120.41;5009847;28;20474;-80
2022/02/03 13:01:43;;;;;;;4.25;2.80;;;;;;;12.57;50.36;101118.56;5013463;28;20121;-80
2022/02/03 13:04:21;;;;;;;5.38;2.72;;;;;;;12.56;50.50;101120.41;5007386;28;20149;-80
2022/02/03 13:07:02;;;;;;;4.72;2.88;;;;;;;12.57;50.35;101121.28;5009719;28;20489;-80
2022/02/03 13:09:51;;;;;;;4.97;3.20;;;;;;;12.56;50.28;101119.53;5008093;28;20050;-80
2022/02/03 13:12:25;;;;;;;3.85;2.60;;;;;;;12.54;50.45;101116.94;4998887;28;20053;-79
2022/02/03 13:14:57;;;;;;;4.43;2.50;;;;;;;12.55;50.55;101110.50;5009815;28;20054;-79
2022/02/03 13:17:33;;;;;;;4.93;2.90;;;;;;;12.54;50.55;101095.13;5027300;28;20084;-80
2022/02/03 13:20:26;;;;;;;4.20;2.78;;;;;;;12.58;49.98;101093.94;5017537;28;20058;-80
2022/02/03 13:23:01;;;;;;;4.30;2.83;;;;;;;12.57;50.02;101092.22;5025695;28;20418;-79
2022/02/03 13:25:43;;;;;;;4.20;2.70;;;;;;;12.55;50.01;101094.16;5008025;28;20058;-80
2022/02/03 13:28:18;;;;;;;5.25;2.95;;;;;;;12.53;50.47;101095.25;5008329;28;20128;-79
2022/02/03 13:30:51;;;;;;;4.13;2.70;;;;;;;12.56;50.12;101105.94;5009422;28;20133;-79
2022/02/03 13:33:25;;;;;;;5.10;2.60;;;;;;;12.56;49.89;101106.81;5010724;28;20112;-79
2022/02/03 13:38:55;;;;;;;4.57;2.85;;;;;;;12.57;49.53;101110.41;5009362;28;20175;-79
2022/02/03 13:41:27;;;;;;;4.32;2.53;;;;;;;12.53;50.21;101103.41;5009366;28;20050;-79
2022/02/03 13:43:53;;;;;;;4.90;2.90;;;;;;;12.54;49.95;101107.88;5008668;28;20478;-79
2022/02/03 13:46:26;;;;;;;6.45;3.55;;;;;;;12.56;49.53;101106.81;5006814;28;20144;-79
2022/02/03 13:48:53;;;;;;;4.90;2.90;;;;;;;12.50;49.83;101104.53;5009336;28;20058;-79
2022/02/03 13:51:27;;;;;;;4.65;2.50;;;;;;;12.54;49.68;101091.53;5008533;28;20085;-79
2022/02/03 13:54:12;;;;;;;4.63;2.72;;;;;;;12.50;49.77;101093.63;5008024;28;20046;-79
2022/02/03 14:14:08;;;;;;;4.93;2.90;;;;;;;12.36;49.88;101082.81;5007542;28;20485;-81
2022/02/03 14:21:43;;;;;;;5.15;3.00;;;;;;;12.35;49.79;101075.66;5007356;28;20049;-81
2022/02/03 14:27:13;;;;;;;6.35;2.90;;;;;;;12.32;49.88;101064.97;5009649;28;20050;-82
2022/02/03 14:29:46;;;;;;;5.05;3.08;;;;;;;12.31;49.89;101065.06;5001996;28;20572;-82
2022/02/03 14:32:16;;;;;;;6.70;3.10;;;;;;;12.31;50.08;101062.34;5011567;28;20049;-81
2022/02/03 14:34:43;;;;;;;4.45;2.83;;;;;;;12.34;50.13;101063.03;5006299;28;20061;-82
2022/02/03 14:40:02;;;;;;;5.60;3.53;;;;;;;12.36;49.67;101052.88;5007856;28;20057;-82
2022/02/03 14:42:33;;;;;;;5.03;3.40;;;;;;;12.35;50.00;101053.00;5005975;28;20477;-81
2022/02/03 14:45:01;;;;;;;6.30;3.38;;;;;;;12.35;49.34;101051.16;5003627;28;20076;-82
2022/02/03 14:47:29;;;;;;;6.55;3.47;;;;;;;12.33;49.73;101049.50;5010212;28;20527;-84
2022/02/03 14:50:00;;;;;;;5.25;3.25;;;;;;;12.32;49.68;101043.19;5006204;28;20046;-81
2022/02/03 14:52:32;;;;;;;6.72;3.35;;;;;;;12.31;49.91;101041.44;5006813;28;20461;-81
2022/02/03 14:58:08;;;;;;;5.05;2.95;;;;;;;12.28;50.07;101033.47;5007656;28;20144;-82
2022/02/03 15:00:34;;;;;;;5.43;2.95;;;;;;;12.28;49.91;101024.44;5000163;28;20112;-82
2022/02/03 15:03:01;;;;;;;5.10;3.30;;;;;;;12.29;49.94;101008.00;5008576;28;20145;-82
2022/02/03 15:05:32;;;;;;;5.75;3.22;;;;;;;12.34;49.98;101007.69;5005828;28;20045;-83
2022/02/03 15:08:03;;;;;;;5.30;2.88;;;;;;;12.32;50.14;101015.97;5007258;28;20060;-82
2022/02/03 15:10:43;;;;;;;5.82;2.78;;;;;;;12.33;49.85;101008.69;5010398;28;20057;-82
2022/02/03 15:13:19;;;;;;;6.28;3.25;;;;;;;12.35;50.26;101012.16;5014872;28;20096;-81
2022/02/03 15:15:46;;;;;;;5.53;3.00;;;;;;;12.36;50.11;100997.53;5003815;28;20057;-81
2022/02/03 15:18:15;;;;;;;5.13;3.20;;;;;;;12.38;50.02;100990.13;5003201;28;20078;-81
2022/02/03 15:20:42;;;;;;;5.72;3.05;;;;;;;12.40;49.93;100990.91;5005910;28;20058;-83
2022/02/03 15:23:08;;;;;;;6.38;3.47;;;;;;;12.43;50.00;100990.69;5008300;28;20124;-82
2022/02/03 15:25:35;;;;;;;6.47;3.20;;;;;;;12.44;49.77;100992.41;5004764;28;20132;-81
2022/02/03 15:28:02;;;;;;;6.30;3.33;;;;;;;12.45;49.68;101003.19;5018962;28;20119;-81
2022/02/03 15:30:30;;;;;;;5.47;3.35;;;;;;;12.45;50.16;101002.31;5014788;28;20053;-81
2022/02/03 15:32:57;;;;;;;4.88;3.05;;;;;;;12.45;49.71;100999.59;5012192;28;20089;-81
2022/02/03 15:35:34;;;;;;;5.18;3.53;;;;;;;12.46;49.55;101001.34;5009266;28;20128;-81
2022/02/03 15:38:02;;;;;;;5.90;3.15;;;;;;;12.45;49.40;101002.31;5020124;28;20139;-82
2022/02/03 15:40:29;;;;;;;5.38;3.05;;;;;;;12.43;49.38;100997.03;5010178;28;20096;-81
2022/02/03 15:43:22;;;;;;;4.47;2.88;;;;;;;12.43;49.64;100993.41;5004106;28;20060;-81
2022/02/03 15:45:57;;;;;;;5.18;3.00;;;;;;;12.42;49.42;100998.00;5004054;28;20088;-81
2022/02/03 15:56:20;;;;;;;5.97;3.47;;;;;;;12.45;49.75;100975.09;5007606;28;20062;-81
2022/02/03 16:17:47;;;;;;;5.88;3.17;;;;;;;12.48;49.60;100970.31;5010986;28;20046;-81
2022/02/03 16:20:32;;;;;;;5.70;3.65;;;;;;;12.51;49.19;100972.81;5010178;28;20259;-81
2022/02/03 16:42:58;;;;;;;5.93;3.97;;;;;;;12.45;49.46;100965.06;5010123;28;20144;-81
2022/02/03 16:50:33;;;;;;;7.35;4.18;;;;;;;12.39;49.23;100973.69;5009526;28;20062;-81
2022/02/03 16:53:01;;;;;;;7.53;4.00;;;;;;;12.40;49.47;100972.72;5007370;28;20120;-81
2022/02/03 16:55:33;;;;;;;7.53;3.80;;;;;;;12.39;49.24;100979.16;4994330;28;20129;-81
2022/02/03 16:58:02;;;;;;;7.43;3.95;;;;;;;12.38;49.34;100974.69;4988479;28;20140;-81
2022/02/03 17:00:29;;;;;;;7.20;3.75;;;;;;;12.38;49.36;100976.53;4990877;28;20458;-80
2022/02/03 17:03:07;;;;;;;7.93;4.20;;;;;;;12.39;49.42;100978.28;4994288;28;20672;-80
2022/02/03 17:05:35;;;;;;;6.88;3.92;;;;;;;12.38;49.39;100977.41;4977660;28;20118;-81
2022/02/03 17:08:08;;;;;;;6.93;3.65;;;;;;;12.41;49.15;100977.19;4985509;28;20078;-82
2022/02/03 17:10:36;;;;;;;5.95;4.20;;;;;;;12.38;49.46;100981.97;5005213;28;20065;-81
2022/02/03 17:13:03;;;;;;;6.28;4.30;;;;;;;12.39;49.27;100979.16;5015561;28;20503;-81
2022/02/03 17:15:30;;;;;;;6.72;4.05;;;;;;;12.38;49.25;100977.41;5008751;28;20108;-81
2022/02/03 17:17:56;;;;;;;7.07;4.40;;;;;;;12.39;49.55;100972.81;5009846;28;20104;-81
2022/02/03 17:20:30;;;;;;;6.00;3.33;;;;;;;12.39;49.72;100979.16;5009421;28;20057;-81
2022/02/03 17:22:59;;;;;;;5.47;3.47;;;;;;;12.38;49.66;100971.94;5010007;28;20054;-81
2022/02/03 17:25:35;;;;;;;6.43;3.90;;;;;;;12.39;49.26;100976.41;5006857;28;20370;-81
2022/02/03 17:28:33;;;;;;;5.68;3.63;;;;;;;12.38;49.49;100984.69;5009605;28;20060;-81
2022/02/03 17:31:08;;;;;;;8.98;4.22;;;;;;;12.39;49.54;100984.59;5008811;28;20054;-81
2022/02/03 18:28:01;;;;;;;11.15;5.85;;;;;;;12.36;49.60;100970.31;5011178;28;20119;-81
2022/02/03 18:46:11;;;;;;;8.18;5.75;;;;;;;12.34;49.48;100983.19;5007500;28;20433;-80
2022/02/03 18:51:18;;;;;;;8.57;5.00;;;;;;;12.35;49.76;100971.31;4996284;28;20073;-80
2022/02/03 19:15:45;;;;;;;10.68;6.53;;;;;;;12.36;49.69;100959.44;5007475;28;20541;-79
2022/02/03 19:57:19;;;;;;;9.80;6.85;;;;;;;12.29;50.09;100950.84;5006489;28;20555;-79
2022/02/03 20:04:17;;;;;;;9.40;6.40;;;;;;;12.28;50.27;100965.44;5004136;28;20409;-79
2022/02/03 20:11:43;;;;;;;10.50;6.93;;;;;;;12.31;50.42;100972.50;5018944;28;20046;-79
2022/02/03 20:14:13;;;;;;;10.63;7.15;;;;;;;12.30;50.25;100971.63;5008042;28;20054;-84
2022/02/03 20:16:41;;;;;;;10.80;7.63;;;;;;;12.31;50.24;100962.50;5006417;28;20410;-77
2022/02/03 20:19:08;;;;;;;11.05;7.45;;;;;;;12.30;50.40;100968.91;5010039;28;20077;-77
2022/02/03 20:21:36;;;;;;;11.90;7.53;;;;;;;12.32;50.63;100966.97;5011044;28;20512;-78
2022/02/03 20:24:05;;;;;;;10.68;6.97;;;;;;;12.31;50.67;100961.63;5010824;28;20093;-77
2022/02/03 20:26:33;;;;;;;10.38;6.93;;;;;;;12.32;50.57;100971.53;5009324;28;20050;-79
2022/02/03 20:29:01;;;;;;;11.38;7.53;;;;;;;12.30;50.73;100971.63;5011761;28;20100;-80
2022/02/03 20:31:27;;;;;;;11.15;6.90;;;;;;;12.30;50.69;100968.91;5009052;28;20082;-78
2022/02/03 20:33:54;;;;;;;11.55;7.72;;;;;;;12.30;51.01;100965.31;5004806;28;20082;-80
2022/02/03 20:36:21;;;;;;;11.00;7.22;;;;;;;12.31;50.83;100965.22;5015564;28;20453;-78
2022/02/03 20:38:51;;;;;;;10.60;7.50;;;;;;;12.32;50.95;100964.25;5020046;28;20129;-78
2022/02/03 20:41:22;;;;;;;11.75;7.38;;;;;;;12.35;50.88;100960.44;5010196;28;20077;-79
2022/02/03 20:43:50;;;;;;;10.13;7.43;;;;;;;12.36;50.89;100963.03;5011452;28;20089;-79
2022/02/03 20:46:17;;;;;;;10.27;6.63;;;;;;;12.36;50.89;100967.59;5003532;28;20123;-79
2022/02/03 20:48:46;;;;;;;12.25;7.50;;;;;;;12.36;51.04;100960.28;5015982;28;20085;-77
2022/02/03 20:51:15;;;;;;;10.65;7.00;;;;;;;12.38;51.27;100962.91;5016059;28;20457;-77
2022/02/03 20:53:43;;;;;;;10.30;6.93;;;;;;;12.38;50.98;100955.63;5011590;28;20128;-76
2022/02/03 20:56:11;;;;;;;11.07;7.18;;;;;;;12.39;51.15;100960.09;5009973;28;20053;-76
2022/02/03 20:58:39;;;;;;;11.23;7.35;;;;;;;12.40;50.83;100964.56;5011223;28;20112;-75
2022/02/03 21:01:13;;;;;;;11.15;6.95;;;;;;;12.41;50.96;100962.69;5016348;28;20444;-73
2022/02/03 21:03:43;;;;;;;11.63;7.60;;;;;;;12.41;51.11;100957.25;4999468;28;20080;-73
2022/02/03 21:06:12;;;;;;;10.95;7.18;;;;;;;12.42;51.19;100951.72;5007696;28;20046;-73
2022/02/03 21:08:41;;;;;;;12.82;8.00;;;;;;;12.41;51.34;100954.53;5010030;28;20081;-74
2022/02/03 21:11:08;;;;;;;11.80;7.45;;;;;;;12.42;51.05;100951.72;5002553;28;20132;-73
2022/02/03 21:13:35;;;;;;;11.85;7.72;;;;;;;12.42;51.04;100956.28;5014321;28;20081;-73
2022/02/03 21:16:04;;;;;;;12.20;7.85;;;;;;;12.43;51.19;100949.84;5008623;28;20128;-71
2022/02/03 21:18:33;;;;;;;10.52;7.18;;;;;;;12.42;51.04;100953.56;5010413;28;20045;-73
2022/02/03 21:20:59;;;;;;;12.45;7.85;;;;;;;12.42;51.25;100946.25;5009444;28;20574;-73
2022/02/03 21:23:26;;;;;;;12.27;8.32;;;;;;;12.42;51.23;100951.72;5011095;28;20049;-74
2022/02/03 21:25:58;;;;;;;13.45;8.50;;;;;;;12.42;51.10;100940.81;5008270;28;20054;-83
2022/02/03 21:28:28;;;;;;;13.45;8.90;;;;;;;12.40;51.30;100950.94;5012583;28;20068;-77
2022/02/03 21:30:57;;;;;;;11.23;7.80;;;;;;;12.41;51.22;100939.06;5013806;28;20054;-76
2022/02/03 21:33:32;;;;;;;13.20;8.48;;;;;;;12.42;50.86;100942.66;5009984;28;20133;-76
2022/02/03 21:36:08;;;;;;;12.98;8.07;;;;;;;12.42;50.66;100948.97;4999801;28;20085;-76
2022/02/03 21:38:37;;;;;;;12.43;8.32;;;;;;;12.40;50.99;100947.34;5008854;28;20220;-76
2022/02/03 21:41:05;;;;;;;12.25;8.00;;;;;;;12.38;51.09;100947.44;5011297;28;20107;-74
2022/02/03 21:43:32;;;;;;;13.43;8.57;;;;;;;12.36;51.16;100941.25;5010033;28;20050;-81
2022/02/03 21:46:00;;;;;;;13.20;8.43;;;;;;;12.37;50.81;100942.97;5010682;28;20049;-83
2022/02/03 21:48:27;;;;;;;12.70;8.43;;;;;;;12.36;51.02;100940.38;5016123;28;20091;-77
2022/02/03 21:50:55;;;;;;;11.88;8.27;;;;;;;12.35;51.10;100942.25;5008779;28;20574;-78
2022/02/03 21:53:26;;;;;;;11.73;7.88;;;;;;;12.34;51.00;100940.50;5008527;28;20041;-80
2022/02/03 21:55:55;;;;;;;14.20;8.38;;;;;;;12.33;51.10;100941.47;5007129;28;20100;-72
2022/02/03 21:58:28;;;;;;;12.27;8.15;;;;;;;12.33;51.31;100938.75;5010997;28;20054;-72
2022/02/03 22:00:57;;;;;;;11.98;8.30;;;;;;;12.33;50.95;100940.59;5008052;28;20049;-70
2022/02/03 22:03:26;;;;;;;12.18;7.93;;;;;;;12.30;51.28;100949.88;5017450;28;20053;-71
2022/02/03 22:05:55;;;;;;;12.77;8.25;;;;;;;12.32;51.41;100947.91;5007186;28;20077;-74
2022/02/03 22:08:23;;;;;;;11.13;7.25;;;;;;;12.32;51.31;100950.63;4989430;28;20050;-88